Time;durP1;ratioP1;P1;durP2;ratioP2;P2;SDS_P1;SDS_P2;PMS_P1;PMS_P2;Temp;Humidity;BMP_temperature;BMP_pressure;BME280_temperature;BME280_humidity;BME280_pressure;Samples;Min_cycle;Max_cycle;Signal;HPM_P1;HPM_P2
2021/08/10 00:01:58;;;;;;;7.63;5.05;;;24.40;67.90;;;;;;5113401;28;20030;-50
2021/08/10 00:04:25;;;;;;;6.70;4.10;;;24.40;68.00;;;;;;5112251;28;20040;-48
2021/08/10 00:06:51;;;;;;;5.18;3.92;;;24.40;68.10;;;;;;5113323;28;20027;-51
2021/08/10 00:09:18;;;;;;;7.07;4.38;;;24.40;68.10;;;;;;5113020;28;20027;-52
2021/08/10 00:11:44;;;;;;;7.75;4.60;;;24.40;68.20;;;;;;5113202;28;20498;-50
2021/08/10 00:14:11;;;;;;;5.88;5.13;;;24.40;68.40;;;;;;5113522;28;20039;-60
2021/08/10 00:16:38;;;;;;;8.48;4.20;;;24.40;68.50;;;;;;5112385;28;20039;-49
2021/08/10 00:19:05;;;;;;;5.95;4.38;;;24.40;68.60;;;;;;5112544;28;20035;-53
2021/08/10 00:21:32;;;;;;;9.77;4.72;;;24.40;68.70;;;;;;5112450;28;20055;-49
2021/08/10 00:23:58;;;;;;;7.05;3.92;;;24.30;68.70;;;;;;5113142;28;20043;-50
2021/08/10 00:26:25;;;;;;;5.53;4.18;;;24.30;68.70;;;;;;5113095;28;20379;-49
2021/08/10 00:28:51;;;;;;;7.57;4.28;;;24.30;68.80;;;;;;5112598;28;20040;-51
2021/08/10 00:31:19;;;;;;;5.88;4.25;;;24.30;69.00;;;;;;5112814;28;20039;-48
2021/08/10 00:33:46;;;;;;;7.13;4.88;;;24.30;69.10;;;;;;5094924;28;20125;-48
2021/08/10 00:36:12;;;;;;;5.32;4.40;;;24.30;69.20;;;;;;5110523;28;20147;-47
2021/08/10 00:38:40;;;;;;;6.65;4.85;;;24.30;69.40;;;;;;5111225;28;20050;-52
2021/08/10 00:41:08;;;;;;;5.20;4.07;;;24.30;69.70;;;;;;5111871;28;20035;-53
2021/08/10 00:43:40;;;;;;;6.72;4.10;;;24.30;69.70;;;;;;5111782;28;20035;-46
2021/08/10 00:46:28;;;;;;;7.30;4.20;;;24.30;69.50;;;;;;5111228;28;20605;-50
2021/08/10 00:48:54;;;;;;;7.20;4.55;;;24.20;69.30;;;;;;5111437;28;20027;-50
2021/08/10 00:51:24;;;;;;;6.45;4.28;;;24.20;69.40;;;;;;5111904;28;20356;-51
2021/08/10 00:54:03;;;;;;;8.15;4.50;;;24.20;69.60;;;;;;5111698;28;20410;-49
2021/08/10 00:56:30;;;;;;;7.88;4.40;;;24.20;69.80;;;;;;5112962;28;20495;-50
2021/08/10 00:59:00;;;;;;;7.53;3.95;;;24.20;69.90;;;;;;5111345;28;20039;-49
2021/08/10 01:01:28;;;;;;;6.60;4.05;;;24.20;69.90;;;;;;5111775;28;20044;-52
2021/08/10 01:03:56;;;;;;;7.47;4.30;;;24.20;70.30;;;;;;5111218;28;20043;-48
2021/08/10 01:06:33;;;;;;;7.35;4.85;;;24.20;70.70;;;;;;5112919;28;20027;-51
2021/08/10 01:09:07;;;;;;;5.80;4.28;;;24.20;70.90;;;;;;5111162;28;20050;-51
2021/08/10 01:11:59;;;;;;;6.20;4.13;;;24.10;71.40;;;;;;5111822;28;20032;-48
2021/08/10 01:14:47;;;;;;;5.75;4.10;;;24.00;72.00;;;;;;5111226;28;20031;-52
2021/08/10 01:17:22;;;;;;;5.72;4.05;;;24.00;72.70;;;;;;5111909;28;20059;-47
2021/08/10 01:20:01;;;;;;;6.82;4.90;;;23.90;73.20;;;;;;5111143;28;20058;-50
2021/08/10 01:22:35;;;;;;;5.10;4.18;;;23.90;73.70;;;;;;5111674;28;20023;-46
2021/08/10 01:25:11;;;;;;;6.47;4.38;;;23.80;74.10;;;;;;5111113;28;20035;-49
2021/08/10 01:28:19;;;;;;;8.05;4.85;;;23.70;74.50;;;;;;5111476;28;20384;-50
2021/08/10 01:31:05;;;;;;;6.57;4.65;;;23.70;75.00;;;;;;5111333;28;20051;-55
2021/08/10 01:33:45;;;;;;;6.20;4.88;;;23.60;75.40;;;;;;5097543;28;20039;-48
2021/08/10 01:36:15;;;;;;;6.93;4.80;;;23.60;75.70;;;;;;5114794;28;20480;-50
2021/08/10 01:38:48;;;;;;;6.05;4.80;;;23.50;76.00;;;;;;5115143;28;20031;-48
2021/08/10 01:41:16;;;;;;;6.32;4.50;;;23.40;76.30;;;;;;5114753;28;20044;-51
2021/08/10 01:43:45;;;;;;;8.10;4.65;;;23.40;76.70;;;;;;5115197;28;20498;-47
2021/08/10 01:46:13;;;;;;;5.60;4.60;;;23.30;76.80;;;;;;5114902;28;20383;-51
2021/08/10 01:48:41;;;;;;;8.60;4.55;;;23.30;77.20;;;;;;5113315;28;20044;-53
2021/08/10 01:51:10;;;;;;;7.63;4.88;;;23.20;77.50;;;;;;5114838;28;20027;-47
2021/08/10 01:53:39;;;;;;;9.35;4.60;;;23.20;77.70;;;;;;5115050;28;20042;-50
2021/08/10 01:56:08;;;;;;;5.22;4.13;;;23.20;77.60;;;;;;5114762;28;20057;-52
2021/08/10 01:58:42;;;;;;;8.75;4.85;;;23.20;77.60;;;;;;5114739;28;20035;-47
2021/08/10 02:01:09;;;;;;;6.05;4.10;;;23.20;78.10;;;;;;5096972;28;20042;-51
2021/08/10 02:03:37;;;;;;;5.10;3.72;;;23.10;78.20;;;;;;5114586;28;20408;-46
2021/08/10 02:06:15;;;;;;;8.48;4.53;;;23.10;78.10;;;;;;5113504;28;20043;-50
2021/08/10 02:08:45;;;;;;;8.13;5.05;;;23.10;78.30;;;;;;5114119;28;20040;-51
2021/08/10 02:11:14;;;;;;;8.48;5.25;;;23.10;78.50;;;;;;5114532;28;20040;-46
2021/08/10 02:13:41;;;;;;;7.28;5.85;;;23.10;78.20;;;;;;5114024;28;20047;-54
2021/08/10 02:16:12;;;;;;;5.63;4.97;;;23.10;77.90;;;;;;5114324;28;20033;-48
2021/08/10 02:18:46;;;;;;;6.57;4.75;;;23.10;78.20;;;;;;5115664;27;20511;-51
2021/08/10 02:21:33;;;;;;;6.63;4.57;;;23.00;78.20;;;;;;5114493;28;20047;-50
2021/08/10 02:24:14;;;;;;;8.27;5.20;;;23.00;78.10;;;;;;5097642;28;20471;-50
2021/08/10 02:26:50;;;;;;;6.35;4.78;;;22.90;78.40;;;;;;5114161;28;20036;-50
2021/08/10 02:29:19;;;;;;;6.15;4.57;;;22.90;78.70;;;;;;5113692;28;20085;-59
2021/08/10 02:31:49;;;;;;;5.82;4.72;;;22.90;78.80;;;;;;5114085;28;20051;-53
2021/08/10 02:34:20;;;;;;;6.90;4.97;;;22.90;78.90;;;;;;5115006;28;20028;-46
2021/08/10 02:36:56;;;;;;;11.35;6.43;;;22.80;79.20;;;;;;5114091;28;20502;-46
2021/08/10 02:39:24;;;;;;;10.32;4.90;;;22.80;79.60;;;;;;5113452;28;20050;-50
2021/08/10 02:41:54;;;;;;;6.20;4.90;;;22.80;79.70;;;;;;5113669;28;20044;-48
2021/08/10 02:44:25;;;;;;;7.90;5.10;;;22.70;79.60;;;;;;5113900;28;20569;-47
2021/08/10 02:46:52;;;;;;;7.50;4.93;;;22.70;79.70;;;;;;5113634;28;20039;-48
2021/08/10 02:49:19;;;;;;;9.20;5.78;;;22.70;80.00;;;;;;5113301;28;20379;-53
2021/08/10 02:51:46;;;;;;;5.95;4.40;;;22.70;80.00;;;;;;5114080;28;20367;-49
2021/08/10 02:54:13;;;;;;;6.70;4.43;;;22.60;80.20;;;;;;5113610;28;20510;-48
2021/08/10 02:57:03;;;;;;;5.93;4.43;;;22.60;80.20;;;;;;5113550;28;20047;-48
2021/08/10 02:59:31;;;;;;;7.18;3.85;;;22.60;80.40;;;;;;5113345;28;20058;-51
2021/08/10 03:02:21;;;;;;;8.65;5.30;;;22.60;80.60;;;;;;5113321;28;20062;-53
2021/08/10 03:05:03;;;;;;;6.18;4.28;;;22.50;80.60;;;;;;5113247;28;20131;-52
2021/08/10 03:07:32;;;;;;;8.63;4.75;;;22.60;80.70;;;;;;5113321;28;20039;-50
2021/08/10 03:10:02;;;;;;;7.40;4.47;;;22.50;80.40;;;;;;5113188;28;20054;-56
2021/08/10 03:12:48;;;;;;;7.93;5.25;;;22.50;80.40;;;;;;5114039;28;20043;-52
2021/08/10 03:15:20;;;;;;;8.75;4.53;;;22.50;80.80;;;;;;5096122;28;20032;-51
2021/08/10 03:17:52;;;;;;;9.07;5.47;;;22.50;81.00;;;;;;5113084;28;20046;-49
2021/08/10 03:20:19;;;;;;;;;;;22.40;81.20;;;;;;5113650;28;20410;-52
2021/08/10 03:22:47;;;;;;;7.68;4.78;;;22.40;81.10;;;;;;5113826;28;19964;-51
2021/08/10 03:25:16;;;;;;;7.20;4.45;;;22.40;81.20;;;;;;5113188;28;20464;-50
2021/08/10 03:27:44;;;;;;;5.05;4.55;;;22.40;81.20;;;;;;5112559;28;20043;-50
2021/08/10 03:30:12;;;;;;;5.85;4.30;;;22.40;81.30;;;;;;5112548;28;20399;-51
2021/08/10 03:32:40;;;;;;;6.63;4.60;;;22.30;81.40;;;;;;5112362;28;20063;-50
2021/08/10 03:35:07;;;;;;;5.50;4.55;;;22.30;81.60;;;;;;5112634;28;20024;-49
2021/08/10 03:37:35;;;;;;;6.15;4.10;;;22.30;81.70;;;;;;5112384;28;20027;-54
2021/08/10 03:40:03;;;;;;;5.47;4.35;;;22.30;81.80;;;;;;5113009;28;20391;-51
2021/08/10 03:42:33;;;;;;;6.22;5.53;;;22.30;81.90;;;;;;5111469;28;20059;-49
2021/08/10 03:45:02;;;;;;;8.65;4.28;;;22.30;81.90;;;;;;5112554;28;20031;-50
2021/08/10 03:47:29;;;;;;;9.13;4.53;;;22.30;81.90;;;;;;5095075;28;20039;-51
2021/08/10 03:49:58;;;;;;;7.68;4.88;;;22.20;81.90;;;;;;5112411;28;20051;-48
2021/08/10 03:52:24;;;;;;;7.07;4.38;;;22.20;82.10;;;;;;5112450;28;20058;-53
2021/08/10 03:54:51;;;;;;;6.03;4.53;;;22.20;82.20;;;;;;5111833;28;20031;-50
2021/08/10 03:57:22;;;;;;;6.23;4.37;;;22.20;82.60;;;;;;5112601;28;20044;-51
2021/08/10 03:59:53;;;;;;;7.40;4.50;;;22.10;82.90;;;;;;5112085;28;20310;-48
2021/08/10 04:02:20;;;;;;;7.97;4.80;;;22.10;83.10;;;;;;5113380;28;20057;-54
2021/08/10 04:04:51;;;;;;;6.32;4.82;;;22.00;83.10;;;;;;5112158;28;20019;-52
2021/08/10 04:07:19;;;;;;;8.68;4.65;;;22.00;83.20;;;;;;5112218;28;20028;-50
2021/08/10 04:09:48;;;;;;;6.03;4.95;;;22.00;83.30;;;;;;5111802;28;20054;-52
2021/08/10 04:12:20;;;;;;;9.20;4.78;;;22.00;83.40;;;;;;5113473;28;20054;-50
2021/08/10 04:14:47;;;;;;;7.30;4.65;;;22.00;83.50;;;;;;5111815;28;20376;-52
2021/08/10 04:17:17;;;;;;;7.22;4.63;;;22.00;83.70;;;;;;5111887;28;20046;-51
2021/08/10 04:19:47;;;;;;;7.85;4.78;;;22.00;83.80;;;;;;5111613;28;20046;-49
2021/08/10 04:22:17;;;;;;;37.22;12.63;;;22.00;83.90;;;;;;5112261;28;20023;-49
2021/08/10 04:24:45;;;;;;;16.25;7.43;;;22.00;84.40;;;;;;5111836;28;20038;-50
2021/08/10 04:27:14;;;;;;;16.65;6.15;;;22.00;84.10;;;;;;5112020;28;20054;-48
2021/08/10 04:29:40;;;;;;;6.93;4.65;;;22.00;84.10;;;;;;5113145;28;20046;-50
2021/08/10 04:32:08;;;;;;;8.35;4.50;;;22.00;83.90;;;;;;5111651;28;20051;-49
2021/08/10 04:34:36;;;;;;;14.65;5.57;;;22.00;83.70;;;;;;5111937;28;20024;-51
2021/08/10 04:37:04;;;;;;;6.15;4.32;;;22.00;83.70;;;;;;5111739;28;20032;-50
2021/08/10 04:39:32;;;;;;;7.97;5.20;;;22.00;83.70;;;;;;5111487;28;20040;-53
2021/08/10 04:42:02;;;;;;;6.30;4.33;;;21.90;83.80;;;;;;5111349;28;20043;-49
2021/08/10 04:44:33;;;;;;;9.23;5.35;;;21.90;83.70;;;;;;5112106;28;20032;-53
2021/08/10 04:47:00;;;;;;;7.03;4.63;;;21.90;84.00;;;;;;5093705;28;20438;-54
2021/08/10 04:49:27;;;;;;;6.25;4.53;;;21.90;84.30;;;;;;5112544;28;20027;-58
2021/08/10 04:51:53;;;;;;;7.80;5.18;;;21.90;84.10;;;;;;5111721;28;20478;-47
2021/08/10 04:54:20;;;;;;;7.20;4.90;;;21.90;84.40;;;;;;5112812;28;20388;-52
2021/08/10 04:56:47;;;;;;;5.18;4.38;;;21.90;84.60;;;;;;5111195;28;20036;-49
2021/08/10 04:59:13;;;;;;;7.72;5.72;;;21.90;84.50;;;;;;5111594;28;20036;-51
2021/08/10 05:01:42;;;;;;;6.65;5.32;;;21.90;84.20;;;;;;5111332;28;20040;-50
2021/08/10 05:04:09;;;;;;;7.40;4.95;;;21.90;84.20;;;;;;5094931;28;20036;-47
2021/08/10 05:06:36;;;;;;;6.30;4.75;;;21.90;84.20;;;;;;5117096;28;20047;-49
2021/08/10 05:09:06;;;;;;;7.88;4.95;;;21.80;84.40;;;;;;5116335;28;20031;-50
2021/08/10 05:11:33;;;;;;;9.53;5.37;;;21.80;85.00;;;;;;5117008;28;20028;-52
2021/08/10 05:14:00;;;;;;;9.45;4.75;;;21.90;84.90;;;;;;5115642;28;20032;-51
2021/08/10 05:16:26;;;;;;;6.55;5.28;;;21.90;84.80;;;;;;5115579;28;20047;-53
2021/08/10 05:18:53;;;;;;;6.78;5.20;;;22.00;84.70;;;;;;5116436;28;20032;-51
2021/08/10 05:21:20;;;;;;;11.40;5.35;;;22.00;85.00;;;;;;5115425;28;20047;-50
2021/08/10 05:23:52;;;;;;;6.57;5.60;;;22.00;85.20;;;;;;5113917;28;20470;-54
2021/08/10 05:26:19;;;;;;;9.43;4.45;;;22.10;85.10;;;;;;5116686;28;20387;-47
2021/08/10 05:28:47;;;;;;;8.27;5.40;;;22.20;85.30;;;;;;5113820;28;20051;-51
2021/08/10 05:31:15;;;;;;;11.40;5.97;;;22.20;84.60;;;;;;5115118;28;20048;-50
2021/08/10 05:33:42;;;;;;;8.35;5.05;;;22.20;84.90;;;;;;5115046;28;20490;-49
2021/08/10 05:36:09;;;;;;;12.20;5.60;;;22.30;85.00;;;;;;5115202;28;20030;-52
2021/08/10 05:38:35;;;;;;;13.48;6.32;;;22.30;85.10;;;;;;5115843;28;20039;-54
2021/08/10 05:41:02;;;;;;;12.15;6.13;;;22.40;84.90;;;;;;5114394;28;20051;-48
2021/08/10 05:43:30;;;;;;;8.98;5.80;;;22.40;85.00;;;;;;5115178;28;20032;-53
2021/08/10 05:46:02;;;;;;;12.18;5.20;;;22.40;84.90;;;;;;5114520;28;20506;-54
2021/08/10 05:48:29;;;;;;;10.02;6.07;;;22.50;84.30;;;;;;5114662;28;20030;-55
2021/08/10 05:51:01;;;;;;;12.52;5.60;;;22.50;84.20;;;;;;5114747;28;20024;-60
2021/08/10 05:53:33;;;;;;;9.45;5.50;;;22.60;84.80;;;;;;5115128;28;20518;-52
2021/08/10 05:56:01;;;;;;;13.02;5.95;;;22.60;83.50;;;;;;5114898;28;20395;-49
2021/08/10 05:58:32;;;;;;;8.10;5.45;;;22.70;82.80;;;;;;5114936;28;20456;-48
2021/08/10 06:00:59;;;;;;;10.73;5.15;;;22.70;82.10;;;;;;5114566;28;20040;-55
2021/08/10 06:03:26;;;;;;;8.57;4.95;;;22.70;81.40;;;;;;5116220;28;20452;-55
2021/08/10 06:05:52;;;;;;;6.25;4.63;;;22.80;81.00;;;;;;5114203;28;20043;-47
2021/08/10 06:08:19;;;;;;;8.05;4.88;;;22.80;80.90;;;;;;5114664;28;20032;-45
2021/08/10 06:10:49;;;;;;;7.05;4.55;;;22.90;81.00;;;;;;5114432;28;20050;-48
2021/08/10 06:13:15;;;;;;;9.27;4.82;;;22.80;80.70;;;;;;5114740;28;20031;-51
2021/08/10 06:15:43;;;;;;;7.32;4.13;;;22.80;81.00;;;;;;5114009;28;20506;-47
2021/08/10 06:18:09;;;;;;;14.13;5.18;;;22.90;80.60;;;;;;5114286;28;20475;-47
2021/08/10 06:20:36;;;;;;;6.10;4.18;;;23.60;77.20;;;;;;5114399;28;20388;-49
2021/08/10 06:23:05;;;;;;;6.70;4.40;;;23.50;77.00;;;;;;5114431;28;20052;-48
2021/08/10 06:25:36;;;;;;;7.07;4.50;;;24.30;75.00;;;;;;5113450;28;20036;-50
2021/08/10 06:28:03;;;;;;;7.18;4.20;;;25.20;69.50;;;;;;5115373;28;20502;-54
2021/08/10 06:30:31;;;;;;;5.68;4.63;;;26.10;65.30;;;;;;5113765;28;20048;-48
2021/08/10 06:32:58;;;;;;;8.25;5.47;;;26.10;63.90;;;;;;5114026;28;20035;-56
2021/08/10 06:35:24;;;;;;;8.38;5.28;;;25.70;64.90;;;;;;5114663;28;20051;-53
2021/08/10 06:37:53;;;;;;;11.15;4.75;;;25.30;66.90;;;;;;5113547;28;20043;-52
2021/08/10 06:40:20;;;;;;;8.00;5.18;;;25.00;67.60;;;;;;5097346;28;20051;-54
2021/08/10 06:42:49;;;;;;;9.65;5.32;;;24.70;68.20;;;;;;5112071;28;20058;-51
2021/08/10 06:45:18;;;;;;;6.95;5.00;;;24.60;69.20;;;;;;5113912;28;20379;-54
2021/08/10 06:47:47;;;;;;;10.18;5.72;;;24.50;69.00;;;;;;5113316;28;20032;-50
2021/08/10 06:50:20;;;;;;;18.13;10.23;;;24.40;68.20;;;;;;5113544;28;20367;-52
2021/08/10 06:52:47;;;;;;;12.23;9.07;;;24.40;68.40;;;;;;5113522;28;20462;-53
2021/08/10 06:55:16;;;;;;;15.27;10.45;;;24.50;68.70;;;;;;5112649;28;20044;-52
2021/08/10 06:57:50;;;;;;;12.30;8.23;;;24.40;68.50;;;;;;5112825;28;20348;-51
2021/08/10 07:00:17;;;;;;;13.70;6.63;;;24.40;68.40;;;;;;5111159;28;20396;-47
2021/08/10 07:02:45;;;;;;;11.85;8.25;;;24.50;67.70;;;;;;5114588;28;20039;-47
2021/08/10 07:05:15;;;;;;;13.77;7.50;;;24.60;67.20;;;;;;5113380;28;20031;-52
2021/08/10 07:07:42;;;;;;;8.90;6.00;;;24.60;67.10;;;;;;5113162;28;20028;-53
2021/08/10 07:10:09;;;;;;;8.38;6.28;;;24.70;67.00;;;;;;5114397;28;20036;-47
2021/08/10 07:12:36;;;;;;;10.75;5.47;;;24.80;66.70;;;;;;5113726;28;20379;-50
2021/08/10 07:15:03;;;;;;;7.78;5.30;;;24.90;66.50;;;;;;5112960;28;20043;-51
2021/08/10 07:17:30;;;;;;;6.78;5.25;;;25.00;65.90;;;;;;5113581;28;20476;-51
2021/08/10 07:19:57;;;;;;;7.53;5.95;;;25.00;65.80;;;;;;5113003;28;20036;-50
2021/08/10 07:22:25;;;;;;;10.60;6.05;;;24.90;65.70;;;;;;5113116;28;20027;-52
2021/08/10 07:24:52;;;;;;;6.90;5.13;;;24.80;66.20;;;;;;5112920;28;20448;-52
2021/08/10 07:27:19;;;;;;;7.07;5.22;;;24.80;66.50;;;;;;5113370;28;20019;-51
2021/08/10 07:29:46;;;;;;;7.90;5.65;;;25.00;66.50;;;;;;5113208;28;20042;-49
2021/08/10 07:32:12;;;;;;;6.65;5.00;;;25.00;66.30;;;;;;5111959;28;20047;-50
2021/08/10 07:34:45;;;;;;;9.45;6.00;;;25.00;66.30;;;;;;5112935;28;20040;-50
2021/08/10 07:37:12;;;;;;;7.70;4.88;;;25.10;64.80;;;;;;5112608;28;20036;-49
2021/08/10 07:39:39;;;;;;;11.70;4.68;;;25.20;63.80;;;;;;5112557;28;20048;-53
2021/08/10 07:42:05;;;;;;;6.35;4.38;;;25.20;62.60;;;;;;5112933;28;20032;-51
2021/08/10 07:44:33;;;;;;;5.38;4.00;;;25.20;61.60;;;;;;5113181;28;20035;-50
2021/08/10 07:47:04;;;;;;;5.93;4.78;;;25.20;61.60;;;;;;5112568;28;20035;-51
2021/08/10 07:49:31;;;;;;;8.13;4.68;;;25.30;61.40;;;;;;5112282;28;20371;-50
2021/08/10 07:51:57;;;;;;;8.57;5.30;;;25.30;61.00;;;;;;5113887;28;20024;-48
2021/08/10 07:54:24;;;;;;;6.75;4.38;;;25.40;61.20;;;;;;5114030;28;20032;-48
2021/08/10 07:56:50;;;;;;;9.20;4.40;;;25.50;60.70;;;;;;5111497;28;20035;-51
2021/08/10 07:59:17;;;;;;;7.78;4.75;;;25.60;60.30;;;;;;5095750;28;20047;-49
2021/08/10 08:01:43;;;;;;;10.13;5.13;;;25.70;60.20;;;;;;5112513;28;20062;-49
2021/08/10 08:04:10;;;;;;;6.50;4.53;;;25.70;58.70;;;;;;5112171;28;20019;-52
2021/08/10 08:06:36;;;;;;;8.52;5.15;;;25.70;59.20;;;;;;5112292;28;20043;-48
2021/08/10 08:09:03;;;;;;;21.75;15.20;;;25.70;59.50;;;;;;5112124;28;20467;-47
2021/08/10 08:11:29;;;;;;;14.32;10.75;;;25.80;59.50;;;;;;5112384;28;20387;-51
2021/08/10 08:13:58;;;;;;;15.20;11.48;;;25.90;59.90;;;;;;5112099;28;20036;-47
2021/08/10 08:16:24;;;;;;;9.23;6.75;;;26.00;60.30;;;;;;5111078;28;20052;-49
2021/08/10 08:18:52;;;;;;;6.63;4.78;;;26.10;59.70;;;;;;5111957;28;20039;-50
2021/08/10 08:21:22;;;;;;;9.68;6.40;;;26.10;59.80;;;;;;5095767;28;20040;-51
2021/08/10 08:23:54;;;;;;;8.18;4.70;;;26.20;59.40;;;;;;5112114;28;20360;-49
2021/08/10 08:26:21;;;;;;;8.57;4.70;;;26.20;58.90;;;;;;5112267;28;20031;-53
2021/08/10 08:28:49;;;;;;;7.60;4.50;;;26.20;58.50;;;;;;5111789;28;20047;-59
2021/08/10 08:31:16;;;;;;;10.93;4.10;;;26.30;58.00;;;;;;5111699;28;20063;-50
2021/08/10 08:33:45;;;;;;;10.40;7.15;;;26.20;58.90;;;;;;5111788;28;20035;-44
2021/08/10 08:36:12;;;;;;;13.88;10.60;;;26.30;59.40;;;;;;5112051;28;20032;-47
2021/08/10 08:38:38;;;;;;;23.17;18.42;;;26.20;59.40;;;;;;5112088;28;20043;-53
2021/08/10 08:41:06;;;;;;;17.00;12.85;;;26.30;59.50;;;;;;5093673;28;20475;-50
2021/08/10 08:43:32;;;;;;;14.38;10.90;;;26.40;59.80;;;;;;5111146;28;20039;-52
2021/08/10 08:45:59;;;;;;;8.25;5.57;;;26.50;60.00;;;;;;5094302;28;20050;-47
2021/08/10 08:48:32;;;;;;;9.30;4.95;;;26.40;60.20;;;;;;5079759;28;20048;-53
2021/08/10 08:51:08;;;;;;;8.63;6.25;;;26.40;60.60;;;;;;5111610;28;20031;-50
2021/08/10 08:53:42;;;;;;;9.82;6.03;;;26.50;61.10;;;;;;5095206;28;20463;-53
2021/08/10 08:56:09;;;;;;;8.07;4.50;;;26.60;60.30;;;;;;5113034;28;20360;-50
2021/08/10 08:58:36;;;;;;;8.95;5.63;;;26.60;59.80;;;;;;5077713;28;20044;-51
2021/08/10 09:01:03;;;;;;;6.88;4.50;;;26.60;60.00;;;;;;5111289;28;20051;-47
2021/08/10 09:03:32;;;;;;;9.65;5.68;;;26.70;60.30;;;;;;5111567;28;20023;-48
2021/08/10 09:05:59;;;;;;;8.45;5.68;;;26.80;60.20;;;;;;5110782;28;20044;-48
2021/08/10 09:09:06;;;;;;;7.90;5.35;;;26.80;60.50;;;;;;5111313;28;20042;-52
2021/08/10 09:11:46;;;;;;;9.38;4.88;;;26.90;60.80;;;;;;5111652;28;20035;-51
2021/08/10 09:14:13;;;;;;;8.93;5.72;;;26.80;60.90;;;;;;5111830;28;20494;-49
2021/08/10 09:17:01;;;;;;;9.73;5.00;;;26.90;60.40;;;;;;5111378;28;20040;-52
2021/08/10 09:19:41;;;;;;;8.43;5.15;;;27.00;60.50;;;;;;5110938;28;20047;-49
2021/08/10 09:22:32;;;;;;;7.60;5.00;;;27.10;60.20;;;;;;5110987;28;20055;-48
2021/08/10 09:25:15;;;;;;;8.85;4.72;;;27.00;60.20;;;;;;5111633;28;20040;-49
2021/08/10 09:27:43;;;;;;;8.13;4.22;;;27.10;60.50;;;;;;5111171;28;20039;-57
2021/08/10 09:30:14;;;;;;;8.52;4.72;;;27.20;60.30;;;;;;5111444;28;20046;-50
2021/08/10 09:32:57;;;;;;;7.05;5.03;;;27.30;60.00;;;;;;5110897;28;20395;-54
2021/08/10 09:35:33;;;;;;;5.50;4.47;;;27.30;59.80;;;;;;5109212;28;20047;-56
2021/08/10 09:38:06;;;;;;;10.65;4.88;;;27.30;59.70;;;;;;5108868;28;20488;-53
2021/08/10 09:40:42;;;;;;;6.00;4.97;;;27.20;60.10;;;;;;5110122;28;20032;-51
2021/08/10 09:43:19;;;;;;;7.88;4.47;;;27.30;60.00;;;;;;5092417;28;20054;-47
2021/08/10 09:45:47;;;;;;;9.27;8.00;;;27.40;59.60;;;;;;5108725;28;20387;-53
2021/08/10 09:48:15;;;;;;;17.17;13.10;;;27.40;59.70;;;;;;5092121;28;20051;-54
2021/08/10 09:50:42;;;;;;;17.70;14.45;;;27.40;59.90;;;;;;5110109;28;20028;-51
2021/08/10 09:53:20;;;;;;;10.38;6.30;;;27.40;59.60;;;;;;5114566;28;20023;-48
2021/08/10 09:55:55;;;;;;;16.00;9.52;;;27.60;60.00;;;;;;5112215;28;20039;-49
2021/08/10 09:58:21;;;;;;;7.22;5.95;;;27.70;59.70;;;;;;5093903;28;20040;-48
2021/08/10 10:00:50;;;;;;;10.20;6.00;;;27.70;59.50;;;;;;5113828;28;20040;-51
2021/08/10 10:03:20;;;;;;;7.43;4.18;;;27.80;59.70;;;;;;5112273;28;20035;-50
2021/08/10 10:05:53;;;;;;;8.02;4.78;;;27.80;59.10;;;;;;5096196;28;20487;-45
2021/08/10 10:08:25;;;;;;;8.00;4.55;;;27.70;59.20;;;;;;5110751;28;20403;-48
2021/08/10 10:10:54;;;;;;;6.15;4.55;;;27.70;59.40;;;;;;5114896;28;20031;-52
2021/08/10 10:13:23;;;;;;;11.75;5.88;;;27.80;59.70;;;;;;5113817;28;20055;-48
2021/08/10 10:15:50;;;;;;;8.25;5.30;;;27.90;59.50;;;;;;5114914;28;20040;-49
2021/08/10 10:18:17;;;;;;;7.90;5.10;;;27.90;59.80;;;;;;5115015;28;20039;-51
2021/08/10 10:20:47;;;;;;;8.32;5.28;;;27.90;60.00;;;;;;5115699;28;20379;-50
2021/08/10 10:23:25;;;;;;;9.45;4.78;;;27.90;60.10;;;;;;5115990;28;20044;-52
2021/08/10 10:25:52;;;;;;;17.55;6.15;;;28.00;59.80;;;;;;5115662;28;20356;-51
2021/08/10 10:28:18;;;;;;;10.57;6.03;;;28.00;60.00;;;;;;5113773;28;20035;-50
2021/08/10 10:30:49;;;;;;;7.80;4.80;;;27.90;59.90;;;;;;5113319;28;20044;-49
2021/08/10 10:33:16;;;;;;;10.65;5.15;;;27.80;60.10;;;;;;5114352;28;20024;-49
2021/08/10 10:35:43;;;;;;;7.88;5.20;;;27.80;59.80;;;;;;5114199;28;20035;-53
2021/08/10 10:38:11;;;;;;;6.10;3.95;;;27.90;59.60;;;;;;5114039;28;20027;-48
2021/08/10 10:40:38;;;;;;;9.02;5.20;;;28.00;58.80;;;;;;5113705;28;20042;-48
2021/08/10 10:43:05;;;;;;;8.23;5.15;;;28.10;58.10;;;;;;5114049;28;20031;-51
2021/08/10 10:45:37;;;;;;;8.50;6.50;;;28.10;58.20;;;;;;5114137;28;20047;-55
2021/08/10 10:48:25;;;;;;;8.18;6.47;;;28.00;59.00;;;;;;5112895;28;20034;-48
2021/08/10 10:51:08;;;;;;;11.65;7.20;;;28.00;59.20;;;;;;5111520;28;20027;-57
2021/08/10 10:53:35;;;;;;;8.38;5.10;;;28.10;59.00;;;;;;5111871;28;20058;-48
2021/08/10 10:56:02;;;;;;;10.40;5.28;;;28.10;59.10;;;;;;5113723;28;20031;-50
2021/08/10 10:58:32;;;;;;;10.20;4.95;;;28.10;58.10;;;;;;5110579;28;20047;-47
2021/08/10 11:01:14;;;;;;;7.03;4.60;;;28.10;58.00;;;;;;5113477;28;20035;-50
2021/08/10 11:04:02;;;;;;;7.65;4.32;;;28.10;57.40;;;;;;5111589;28;20506;-53
2021/08/10 11:06:33;;;;;;;7.97;4.25;;;28.10;57.00;;;;;;5110535;28;20032;-53
2021/08/10 11:09:01;;;;;;;5.32;3.90;;;28.30;56.40;;;;;;5113240;28;20027;-52
2021/08/10 11:11:43;;;;;;;8.68;4.18;;;28.30;56.20;;;;;;5113189;28;20479;-52
2021/08/10 11:14:35;;;;;;;6.45;4.20;;;28.30;56.20;;;;;;5111108;28;20031;-49
2021/08/10 11:17:07;;;;;;;7.32;4.40;;;28.30;56.30;;;;;;5112524;28;20042;-52
2021/08/10 11:19:39;;;;;;;10.18;4.60;;;28.30;56.10;;;;;;5111417;28;20028;-51
2021/08/10 11:22:15;;;;;;;7.43;4.22;;;28.30;56.10;;;;;;5111838;28;20035;-52
2021/08/10 11:24:44;;;;;;;17.13;12.35;;;28.30;55.20;;;;;;5112972;28;20040;-51
2021/08/10 11:27:40;;;;;;;12.73;9.93;;;28.20;54.70;;;;;;5109701;28;20035;-56
2021/08/10 11:30:09;;;;;;;9.38;6.55;;;28.30;54.10;;;;;;5113070;28;20023;-51
2021/08/10 11:32:37;;;;;;;13.00;8.65;;;28.50;54.00;;;;;;5111561;28;20051;-52
2021/08/10 11:35:23;;;;;;;8.73;5.47;;;28.50;53.90;;;;;;5112774;28;20015;-50
2021/08/10 11:38:17;;;;;;;9.68;6.97;;;28.40;53.80;;;;;;5109835;28;20510;-48
2021/08/10 11:40:49;;;;;;;13.52;7.28;;;28.40;53.10;;;;;;5111767;28;20044;-53
2021/08/10 11:43:16;;;;;;;9.43;4.93;;;28.50;53.60;;;;;;5112662;28;20043;-50
2021/08/10 11:45:43;;;;;;;11.40;4.78;;;28.50;53.00;;;;;;5113156;28;20510;-48
2021/08/10 11:48:09;;;;;;;8.20;4.22;;;28.50;53.10;;;;;;5110350;28;20076;-51
2021/08/10 11:50:36;;;;;;;5.78;4.03;;;28.60;53.20;;;;;;5111097;28;20040;-52
2021/08/10 11:53:03;;;;;;;11.45;4.00;;;28.60;54.00;;;;;;5112556;28;20024;-49
2021/08/10 11:55:32;;;;;;;9.25;4.63;;;28.70;54.10;;;;;;5110179;28;20499;-50
2021/08/10 11:58:02;;;;;;;8.15;3.80;;;28.90;53.40;;;;;;5112646;28;20471;-49
2021/08/10 12:00:31;;;;;;;9.68;4.03;;;29.00;53.40;;;;;;5110053;28;20042;-48
2021/08/10 12:02:58;;;;;;;10.55;3.88;;;28.80;52.60;;;;;;5112672;28;20034;-54
2021/08/10 12:05:25;;;;;;;7.80;3.80;;;28.70;53.40;;;;;;5111116;28;20035;-54
2021/08/10 12:08:09;;;;;;;7.32;3.60;;;28.60;53.50;;;;;;5112303;28;20094;-56
2021/08/10 12:10:38;;;;;;;6.65;3.78;;;28.70;52.90;;;;;;5110786;28;20038;-51
2021/08/10 12:13:22;;;;;;;5.93;3.90;;;28.70;52.70;;;;;;5112581;28;20031;-54
2021/08/10 12:15:50;;;;;;;12.98;7.78;;;28.70;53.20;;;;;;5108400;28;20040;-55
2021/08/10 12:18:23;;;;;;;18.48;14.35;;;28.70;53.20;;;;;;5112288;28;20020;-56
2021/08/10 12:21:00;;;;;;;14.82;10.70;;;28.70;53.40;;;;;;5109257;28;20497;-51
2021/08/10 12:23:40;;;;;;;12.10;8.10;;;28.80;52.70;;;;;;5112278;28;20387;-53
2021/08/10 12:26:12;;;;;;;10.80;6.40;;;28.90;52.70;;;;;;5112025;28;20139;-53
2021/08/10 12:28:56;;;;;;;9.98;5.78;;;28.70;53.20;;;;;;5110973;28;20031;-56
2021/08/10 12:31:24;;;;;;;9.13;5.40;;;28.60;53.60;;;;;;5111262;28;20043;-55
2021/08/10 12:33:52;;;;;;;11.63;4.70;;;28.70;53.50;;;;;;5108491;28;20472;-53
2021/08/10 12:36:21;;;;;;;8.38;3.92;;;28.80;54.10;;;;;;5111932;28;20051;-54
2021/08/10 12:38:50;;;;;;;10.38;3.75;;;28.80;53.90;;;;;;5110843;28;20047;-50
2021/08/10 12:41:20;;;;;;;6.47;3.80;;;28.90;54.00;;;;;;5111120;28;20056;-54
2021/08/10 12:43:51;;;;;;;6.90;4.28;;;29.10;53.70;;;;;;5111689;28;20027;-56
2021/08/10 12:46:35;;;;;;;8.57;3.90;;;29.10;53.00;;;;;;5111184;28;20044;-54
2021/08/10 12:49:12;;;;;;;9.13;4.47;;;29.00;53.00;;;;;;5109968;28;20488;-54
2021/08/10 12:51:51;;;;;;;10.20;4.70;;;29.00;53.00;;;;;;5109134;28;20047;-54
2021/08/10 12:54:18;;;;;;;6.18;4.07;;;29.00;53.20;;;;;;5110572;28;20039;-51
2021/08/10 12:56:45;;;;;;;11.43;4.80;;;29.00;52.80;;;;;;5111902;28;20031;-53
2021/08/10 12:59:11;;;;;;;6.30;4.32;;;29.00;52.90;;;;;;5112083;28;20019;-53
2021/08/10 13:01:42;;;;;;;7.88;4.13;;;29.00;52.90;;;;;;5111559;28;20391;-51
2021/08/10 13:04:10;;;;;;;8.38;4.43;;;29.20;52.90;;;;;;5109761;28;20110;-53